Temp: 16.4°C   Hum: 74%
  Wind: 4.9mph   Dir: SSW (209°)
  Rain: 0.6mm Rate: 0.0mm/hr
  Pressure: 1017.6mb

Historic data

Bath Spa Weather Station Historical Data
Daily Summary for May 23, 2022 Units:  English    Metric   Both
Daily Weekly Monthly Yearly Custom
  High: Low: Average:
Temperature: 59.5 °F 48.7 °F 55.6 °F
Dew Point: 52.5 °F 45.4 °F 49.6 °F
Humidity: 93% 68.4% 81%
Wind Speed: 10.7mph 0mph 4.6mph
Wind Gust: 16mph - -
Wind- - WNW
Pressure: 29.77 in 29.59 in -
Precipitation: 0.35 in    
Historical Graphs
 
 
Tabular Data for May 23, 2022
Time Temperature Dew Point Pressure Wind Wind Speed Wind Gust Humidity Rainfall Rate (Hourly) solar
00:09 56.8 °F 50.6 °F 29.77 in WNW 2.9 mph 5 mph 79.8% 0.00 in 0 W/m2
00:14 56.8 °F 50.7 °F 29.77 in WNW 2.9 mph 4 mph 80% 0.00 in 0 W/m2
00:19 56.8 °F 50.7 °F 29.77 in WNW 3.7 mph 5 mph 80% 0.00 in 0 W/m2
00:24 56.8 °F 50.9 °F 29.77 in WNW 2.9 mph 5 mph 80.8% 0.00 in 0 W/m2
00:29 56.7 °F 50.9 °F 29.77 in WNW 2.4 mph 5 mph 81% 0.00 in 0 W/m2
00:34 56.7 °F 50.9 °F 29.76 in WNW 2.5 mph 5 mph 81% 0.00 in 0 W/m2
00:39 56.7 °F 51.3 °F 29.76 in WNW 1.7 mph 4 mph 82% 0.00 in 0 W/m2
00:44 56.7 °F 51.3 °F 29.76 in WNW 2 mph 3 mph 82% 0.00 in 0 W/m2
00:49 56.5 °F 51.2 °F 29.76 in WNW 1.2 mph 4 mph 82.2% 0.00 in 0 W/m2
00:54 56.5 °F 51.4 °F 29.76 in WNW 3.3 mph 6 mph 83% 0.00 in 0 W/m2
00:59 56.5 °F 51.4 °F 29.75 in WNW 3.2 mph 5 mph 83% 0.00 in 0 W/m2
01:04 56.5 °F 51.4 °F 29.76 in WNW 2.9 mph 5 mph 83% 0.00 in 0 W/m2
01:09 56.5 °F 51.5 °F 29.75 in WNW 3 mph 5 mph 83.8% 0.00 in 0 W/m2
01:14 56.3 °F 51.4 °F 29.75 in WNW 1.8 mph 5 mph 84% 0.00 in 0 W/m2
01:19 56.3 °F 51.4 °F 29.75 in WNW 2.4 mph 4 mph 84% 0.00 in 0 W/m2
01:24 56.3 °F 51.4 °F 29.75 in WNW 2.8 mph 4 mph 84% 0.00 in 0 W/m2
01:29 56.3 °F 51.4 °F 29.75 in WNW 2.1 mph 4 mph 84% 0.00 in 0 W/m2
01:34 56.3 °F 51.4 °F 29.75 in WNW 1.3 mph 4 mph 84% 0.00 in 0 W/m2
01:39 56.1 °F 51.4 °F 29.75 in WNW 1.6 mph 4 mph 84% 0.00 in 0 W/m2
01:44 56.1 °F 51.5 °F 29.74 in WNW 1.6 mph 4 mph 84.6% 0.00 in 0 W/m2
01:49 56.1 °F 51.6 °F 29.74 in WNW 2.1 mph 4 mph 85% 0.00 in 0 W/m2
01:54 56.1 °F 51.6 °F 29.74 in WNW 2.4 mph 5 mph 85% 0.00 in 0 W/m2
01:59 56.1 °F 51.6 °F 29.73 in West 3.3 mph 6 mph 85% 0.00 in 0 W/m2
02:03 56.2 °F 51.7 °F 29.74 in West 2.5 mph 8 mph 85% 0.00 in 0 W/m2
02:09 56.3 °F 52 °F 29.74 in West 3.8 mph 8 mph 85.6% 0.00 in 0 W/m2
02:14 56.2 °F 52.1 °F 29.73 in West 3.3 mph 6 mph 86% 0.00 in 0 W/m2
02:19 56 °F 51.9 °F 29.73 in West 3.5 mph 6 mph 86% 0.00 in 0 W/m2
02:24 55.9 °F 52.1 °F 29.73 in West 3 mph 6 mph 87% 0.00 in 0 W/m2
02:29 55.8 °F 52.1 °F 29.73 in West 2.5 mph 6 mph 87.2% 0.00 in 0 W/m2
02:34 55.8 °F 52.3 °F 29.73 in West 3.2 mph 6 mph 88% 0.00 in 0 W/m2
02:39 55.6 °F 52.2 °F 29.72 in West 3.3 mph 5 mph 88.2% 0.00 in 0 W/m2
02:44 55.6 °F 52.3 °F 29.73 in West 3.3 mph 6 mph 89% 0.00 in 0 W/m2
02:49 55.6 °F 52.3 °F 29.73 in West 3.9 mph 7 mph 89% 0.00 in 0 W/m2
02:54 55.6 °F 52.3 °F 29.73 in WNW 3.6 mph 7 mph 89% 0.00 in 0 W/m2
02:59 55.5 °F 52.3 °F 29.73 in WNW 4.3 mph 6 mph 89.2% 0.00 in 0 W/m2
03:04 55.4 °F 52.5 °F 29.73 in WNW 2.5 mph 5 mph 90% 0.00 in 0 W/m2
03:09 55.2 °F 52.3 °F 29.72 in WNW 4 mph 7 mph 90% 0.00 in 0 W/m2
03:14 55.2 °F 52.3 °F 29.72 in WNW 4.4 mph 7 mph 90% 0.00 in 0 W/m2
03:19 55.2 °F 52.3 °F 29.72 in WNW 2 mph 5 mph 90% 0.00 in 0 W/m2
03:24 55 °F 52.2 °F 29.72 in WNW 3.8 mph 6 mph 90% 0.00 in 0 W/m2
03:29 55 °F 52.2 °F 29.72 in WNW 3.7 mph 6 mph 90% 0.00 in 0 W/m2
03:34 54.9 °F 52 °F 29.72 in WNW 2.6 mph 5 mph 90% 0.00 in 0 W/m2
03:39 54.9 °F 52 °F 29.72 in WNW 1.9 mph 4 mph 90% 0.00 in 0 W/m2
03:44 54.9 °F 52 °F 29.72 in West 3.2 mph 5 mph 90% 0.00 in 0 W/m2
03:49 54.9 °F 52 °F 29.71 in West 2.5 mph 5 mph 90% 0.00 in 0 W/m2
03:54 54.9 °F 52 °F 29.71 in WNW 2.7 mph 6 mph 90% 0.00 in 0 W/m2
03:58 54.9 °F 52 °F 29.71 in NW 1.5 mph 5 mph 90% 0.00 in 0 W/m2
04:04 54.8 °F 51.9 °F 29.71 in WNW 3.3 mph 6 mph 90% 0.00 in 0 W/m2
04:09 54.7 °F 51.8 °F 29.71 in WNW 3 mph 6 mph 90% 0.00 in 0 W/m2
04:14 54.7 °F 51.8 °F 29.70 in WNW 3.5 mph 6 mph 90% 0.00 in 0 W/m2
04:19 54.7 °F 51.8 °F 29.70 in West 3.7 mph 6 mph 90% 0.00 in 0 W/m2
04:24 54.7 °F 51.8 °F 29.70 in West 4.5 mph 8 mph 90% 0.00 in 0 W/m2
04:29 54.5 °F 51.6 °F 29.70 in West 2.8 mph 8 mph 90% 0.00 in 0 W/m2
04:34 54.5 °F 51.6 °F 29.70 in West 3.8 mph 7 mph 90% 0.00 in 0 W/m2
04:39 54.5 °F 51.6 °F 29.70 in WNW 3.4 mph 6 mph 90% 0.00 in 0 W/m2
04:44 54.4 °F 51.5 °F 29.70 in West 3.7 mph 6 mph 90% 0.00 in 0 W/m2
04:49 54.3 °F 51.4 °F 29.70 in West 2.5 mph 6 mph 90% 0.00 in 0 W/m2
04:54 54.3 °F 51.4 °F 29.70 in West 3.3 mph 6 mph 90% 0.00 in 0 W/m2
04:59 54.3 °F 51.4 °F 29.70 in West 2.5 mph 5 mph 90% 0.00 in 0 W/m2
05:04 54.3 °F 51.4 °F 29.70 in West 2.3 mph 6 mph 90% 0.00 in 0 W/m2
05:09 54.3 °F 51.3 °F 29.70 in West 2.8 mph 6 mph 89.8% 0.00 in 0 W/m2
05:14 54.3 °F 51.1 °F 29.70 in West 2.9 mph 6 mph 89% 0.00 in 0 W/m2
05:19 54.3 °F 51.1 °F 29.70 in West 2.5 mph 6 mph 89.2% 0.00 in 0 W/m2
05:23 54.3 °F 51.1 °F 29.70 in West 1.7 mph 4 mph 89% 0.00 in 5 W/m2
05:29 54.1 °F 50.9 °F 29.69 in West 2 mph 5 mph 89% 0.00 in 9 W/m2
05:34 54.1 °F 50.9 °F 29.69 in West 2.2 mph 4 mph 89% 0.00 in 9 W/m2
05:39 54.1 °F 50.9 °F 29.69 in West 2.6 mph 6 mph 89% 0.00 in 9 W/m2
05:44 54.1 °F 50.9 °F 29.69 in West 3.6 mph 5 mph 89% 0.00 in 11 W/m2
05:49 54.1 °F 50.9 °F 29.69 in West 2.8 mph 5 mph 89% 0.00 in 12 W/m2
05:54 54.1 °F 50.9 °F 29.69 in West 4.2 mph 6 mph 89% 0.00 in 12 W/m2
05:59 54.1 °F 50.8 °F 29.69 in West 2.7 mph 5 mph 89% 0.00 in 18 W/m2
06:04 54.1 °F 50.8 °F 29.69 in West 3.6 mph 6 mph 89% 0.00 in 25 W/m2
06:09 54 °F 50.7 °F 29.69 in West 3.2 mph 7 mph 89% 0.00 in 32 W/m2
06:14 54.1 °F 50.9 °F 29.68 in West 2.8 mph 6 mph 89% 0.00 in 35 W/m2
06:19 54 °F 50.7 °F 29.68 in West 3.6 mph 6 mph 89% 0.00 in 39 W/m2
06:24 54 °F 50.7 °F 29.68 in West 4.5 mph 7 mph 89% 0.00 in 46 W/m2
06:29 54 °F 50.7 °F 29.68 in West 3.8 mph 6 mph 88.6% 0.00 in 53 W/m2
06:34 54.1 °F 50.7 °F 29.68 in West 3.7 mph 7 mph 88% 0.00 in 56 W/m2
06:39 54.1 °F 50.7 °F 29.68 in West 4.5 mph 8 mph 88% 0.00 in 54 W/m2
06:44 54.1 °F 50.7 °F 29.68 in West 3.2 mph 8 mph 88% 0.00 in 69 W/m2
06:49 54.1 °F 50.7 °F 29.68 in West 3.2 mph 6 mph 88% 0.00 in 84 W/m2
06:54 54.1 °F 50.7 °F 29.67 in West 3.2 mph 5 mph 88% 0.00 in 95 W/m2
06:59 54.1 °F 50.7 °F 29.67 in West 2.1 mph 5 mph 88% 0.00 in 109 W/m2
07:04 54.3 °F 50.9 °F 29.67 in West 4.7 mph 7 mph 88% 0.00 in 116 W/m2
07:09 54.3 °F 50.7 °F 29.67 in West 3.9 mph 7 mph 87.6% 0.00 in 113 W/m2
07:14 54.3 °F 50.7 °F 29.67 in West 3.7 mph 6 mph 87.4% 0.00 in 130 W/m2
07:19 54.5 °F 50.7 °F 29.67 in WNW 3.3 mph 8 mph 87% 0.00 in 178 W/m2
07:24 54.7 °F 50.9 °F 29.67 in West 5.2 mph 9 mph 87% 0.00 in 195 W/m2
07:29 54.8 °F 51 °F 29.67 in WNW 4.2 mph 8 mph 87% 0.00 in 243 W/m2
07:34 54.9 °F 51.1 °F 29.67 in WNW 3.6 mph 8 mph 87% 0.00 in 156 W/m2
07:39 55 °F 51 °F 29.67 in WNW 4 mph 7 mph 86.3% 0.00 in 146 W/m2
07:44 55 °F 50.9 °F 29.67 in WNW 3.6 mph 8 mph 86% 0.00 in 160 W/m2
07:49 55 °F 50.7 °F 29.67 in WNW 4.4 mph 9 mph 85.4% 0.00 in 190 W/m2
07:54 55.2 °F 50.7 °F 29.66 in WNW 4.2 mph 9 mph 85% 0.00 in 265 W/m2
07:59 55.4 °F 50.7 °F 29.67 in NNW 4 mph 7 mph 84% 0.00 in 302 W/m2
08:04 55.8 °F 50.7 °F 29.67 in WNW 5 mph 10 mph 82.8% 0.00 in 338 W/m2
08:09 55.8 °F 50.2 °F 29.66 in NW 6.6 mph 10 mph 81.6% 0.00 in 246 W/m2
08:14 55.8 °F 50.1 °F 29.66 in WNW 5.6 mph 9 mph 81% 0.00 in 218 W/m2
08:19 55.9 °F 50.2 °F 29.66 in WNW 4.9 mph 9 mph 81% 0.00 in 192 W/m2
08:24 55.8 °F 50.1 °F 29.66 in WNW 5.9 mph 10 mph 81% 0.00 in 151 W/m2
08:29 55.6 °F 49.6 °F 29.66 in WNW 5.4 mph 9 mph 80.2% 0.00 in 214 W/m2
08:34 55.8 °F 49.7 °F 29.66 in WNW 5.5 mph 10 mph 80.3% 0.00 in 262 W/m2
08:39 55.8 °F 50 °F 29.66 in WNW 6.2 mph 10 mph 81% 0.00 in 257 W/m2
08:44 55.8 °F 50.1 °F 29.66 in WNW 4 mph 8 mph 81% 0.00 in 214 W/m2
08:49 55.8 °F 50.1 °F 29.66 in WNW 4.5 mph 8 mph 81% 0.00 in 248 W/m2
08:53 55.9 °F 49.9 °F 29.66 in West 3.7 mph 7 mph 80.3% 0.00 in 195 W/m2
08:59 55.9 °F 49.6 °F 29.66 in West 4.1 mph 9 mph 79.2% 0.00 in 225 W/m2
09:04 55.8 °F 49.3 °F 29.66 in WNW 3.3 mph 9 mph 79% 0.00 in 241 W/m2
09:09 56.4 °F 50 °F 29.65 in West 3 mph 7 mph 79% 0.00 in 640 W/m2
09:14 57.2 °F 50 °F 29.65 in West 3.7 mph 7 mph 77% 0.00 in 499 W/m2
09:19 57.3 °F 49.7 °F 29.65 in NW 5.4 mph 9 mph 76% 0.00 in 547 W/m2
09:24 57.2 °F 49.4 °F 29.65 in WNW 5.7 mph 10 mph 75.2% 0.00 in 411 W/m2
09:29 57.3 °F 49.4 °F 29.65 in NW 3.6 mph 10 mph 75% 0.00 in 394 W/m2
09:34 57.3 °F 49 °F 29.65 in WNW 7.2 mph 10 mph 74% 0.00 in 369 W/m2
09:39 57 °F 49 °F 29.65 in West 5.7 mph 12 mph 74.8% 0.00 in 499 W/m2
09:44 57.4 °F 49.1 °F 29.65 in West 5.1 mph 8 mph 74% 0.00 in 276 W/m2
09:49 57.6 °F 49.6 °F 29.65 in WNW 4.1 mph 9 mph 74.8% 0.00 in 281 W/m2
09:54 57.6 °F 49.1 °F 29.65 in West 5.6 mph 11 mph 73.6% 0.00 in 399 W/m2
09:59 58.1 °F 49.6 °F 29.64 in WNW 3.3 mph 8 mph 73.4% 0.00 in 563 W/m2
10:04 58.3 °F 49.5 °F 29.64 in NW 6.6 mph 10 mph 72.8% 0.00 in 464 W/m2
10:09 57.9 °F 48.9 °F 29.64 in West 7 mph 11 mph 72% 0.00 in 540 W/m2
10:14 58.4 °F 49.4 °F 29.64 in WNW 6.4 mph 10 mph 72% 0.00 in 517 W/m2
10:19 58.4 °F 49.4 °F 29.64 in West 7.2 mph 11 mph 72% 0.00 in 512 W/m2
10:24 58.5 °F 49.5 °F 29.64 in West 5.1 mph 10 mph 71.8% 0.00 in 570 W/m2
10:29 58.6 °F 49.3 °F 29.63 in WSW 5.4 mph 11 mph 71.2% 0.00 in 311 W/m2
10:34 58.6 °F 49.3 °F 29.63 in West 4.5 mph 9 mph 71% 0.00 in 241 W/m2
10:39 58.5 °F 49.3 °F 29.63 in West 5.3 mph 9 mph 71.4% 0.00 in 250 W/m2
10:44 58.6 °F 49.6 °F 29.63 in West 5.2 mph 11 mph 72% 0.00 in 304 W/m2
10:49 58.5 °F 49.5 °F 29.63 in WNW 4.3 mph 11 mph 72% 0.00 in 308 W/m2
10:54 58.5 °F 49.5 °F 29.63 in WNW 4.9 mph 10 mph 72% 0.00 in 325 W/m2
10:59 58.6 °F 49.6 °F 29.62 in WSW 5 mph 10 mph 72% 0.00 in 306 W/m2
11:04 58.6 °F 49.7 °F 29.62 in West 3.9 mph 8 mph 72.2% 0.00 in 294 W/m2
11:09 58.6 °F 49.6 °F 29.63 in West 5.9 mph 12 mph 72% 0.00 in 279 W/m2
11:14 58.6 °F 49.6 °F 29.62 in NW 5.6 mph 11 mph 72% 0.00 in 297 W/m2
11:19 58.7 °F 49.6 °F 29.62 in WNW 5.3 mph 10 mph 71.8% 0.00 in 341 W/m2
11:24 58.7 °F 49.5 °F 29.62 in WNW 6.9 mph 11 mph 71.4% 0.00 in 308 W/m2
11:29 58.6 °F 49.6 °F 29.62 in WNW 5.7 mph 10 mph 72% 0.00 in 323 W/m2
11:34 58.6 °F 50 °F 29.62 in West 4.7 mph 14 mph 73% 0.00 in 364 W/m2
11:39 58.7 °F 50.4 °F 29.62 in WNW 5.9 mph 10 mph 73.8% 0.00 in 374 W/m2
11:44 58.9 °F 50.4 °F 29.62 in WNW 6.7 mph 13 mph 73.4% 0.00 in 501 W/m2
11:49 58.9 °F 50.6 °F 29.62 in WNW 6 mph 11 mph 74% 0.00 in 698 W/m2
11:54 59.2 °F 50.7 °F 29.62 in WSW 7.7 mph 13 mph 73.5% 0.00 in 492 W/m2
11:59 58.6 °F 50.4 °F 29.62 in WSW 9 mph 15 mph 74% 0.00 in 330 W/m2
12:04 58.8 °F 50.5 °F 29.62 in West 5.6 mph 12 mph 74% 0.00 in 397 W/m2
12:09 58.8 °F 50.4 °F 29.62 in WNW 4.9 mph 10 mph 73.6% 0.00 in 397 W/m2
12:14 59.2 °F 50.3 °F 29.62 in West 6.6 mph 13 mph 72.6% 0.00 in 325 W/m2
12:19 58.8 °F 49.8 °F 29.62 in WNW 7.5 mph 15 mph 72% 0.00 in 285 W/m2
12:24 58.7 °F 49.7 °F 29.62 in WNW 7.3 mph 14 mph 72% 0.00 in 290 W/m2
12:29 58.5 °F 49.5 °F 29.62 in WNW 9 mph 13 mph 72% 0.00 in 355 W/m2
12:34 58.3 °F 49.4 °F 29.62 in WNW 8.2 mph 15 mph 72.2% 0.00 in 339 W/m2
12:39 58.3 °F 49.6 °F 29.62 in WNW 10 mph 14 mph 73% 0.00 in 499 W/m2
12:44 58.5 °F 49.8 °F 29.62 in West 7.4 mph 14 mph 73% 0.00 in 450 W/m2
12:54 58.5 °F 50.3 °F 29.62 in West 8.2 mph 16 mph 74% 0.00 in 371 W/m2
12:59 58.3 °F 50 °F 29.62 in WNW 7.6 mph 16 mph 74% 0.00 in 454 W/m2
13:04 58.4 °F 50.1 °F 29.62 in WNW 5.8 mph 11 mph 74% 0.00 in 396 W/m2
13:09 58.6 °F 50.6 °F 29.62 in West 3.8 mph 12 mph 74.8% 0.00 in 360 W/m2
13:14 58.8 °F 50.7 °F 29.62 in West 6 mph 10 mph 74.4% 0.00 in 353 W/m2
13:19 58.8 °F 50.5 °F 29.62 in West 4.9 mph 10 mph 74% 0.00 in 404 W/m2
13:24 58.9 °F 50.6 °F 29.62 in WNW 7.8 mph 12 mph 73.8% 0.00 in 427 W/m2
13:29 58.6 °F 49.6 °F 29.62 in West 8.2 mph 13 mph 72% 0.00 in 536 W/m2
13:34 58.8 °F 49.8 °F 29.62 in West 7.2 mph 12 mph 72% 0.00 in 536 W/m2
13:39 58.7 °F 49.5 °F 29.62 in WNW 5.7 mph 12 mph 71.4% 0.00 in 487 W/m2
13:44 58.8 °F 49.8 °F 29.61 in West 4.6 mph 10 mph 72% 0.00 in 381 W/m2
13:49 58.9 °F 49.9 °F 29.61 in WNW 6.4 mph 11 mph 72% 0.00 in 371 W/m2
13:54 58.9 °F 49.9 °F 29.61 in WNW 5.5 mph 11 mph 72% 0.00 in 443 W/m2
13:59 59.3 °F 50 °F 29.61 in West 4.7 mph 10 mph 71.2% 0.00 in 483 W/m2
14:04 59.4 °F 49.7 °F 29.61 in West 8.6 mph 12 mph 70% 0.00 in 564 W/m2
14:09 59.2 °F 49.6 °F 29.61 in WNW 6.5 mph 12 mph 70.6% 0.00 in 548 W/m2
14:14 58.9 °F 49.5 °F 29.60 in West 8.2 mph 14 mph 70.8% 0.00 in 343 W/m2
14:19 59.3 °F 49.9 °F 29.61 in West 7.2 mph 12 mph 71% 0.00 in 336 W/m2
14:24 59.4 °F 50 °F 29.60 in West 5.6 mph 11 mph 71% 0.00 in 276 W/m2
14:29 58.9 °F 49.7 °F 29.60 in WNW 8.7 mph 13 mph 71.4% 0.00 in 241 W/m2
14:34 58.6 °F 49.4 °F 29.60 in WSW 6.8 mph 16 mph 71.6% 0.00 in 571 W/m2
14:39 59.1 °F 50.1 °F 29.60 in West 9 mph 12 mph 72% 0.00 in 612 W/m2
14:44 59.2 °F 49.9 °F 29.60 in West 8.8 mph 14 mph 71.2% 0.00 in 598 W/m2
14:49 59 °F 50.2 °F 29.60 in WNW 6.8 mph 12 mph 72.6% 0.00 in 626 W/m2
14:54 59.2 °F 51.1 °F 29.60 in WNW 6.6 mph 11 mph 74.4% 0.00 in 483 W/m2
14:59 58.6 °F 50.6 °F 29.60 in WNW 5.7 mph 13 mph 75% 0.00 in 388 W/m2
15:04 58.5 °F 50.4 °F 29.59 in West 7.3 mph 13 mph 74.8% 0.00 in 388 W/m2
15:09 58.6 °F 50.3 °F 29.59 in West 5.8 mph 12 mph 73.8% 0.00 in 329 W/m2
15:13 58.7 °F 50.2 °F 29.59 in West 6.3 mph 10 mph 73.3% 0.00 in 369 W/m2
15:19 58.9 °F 49.9 °F 29.59 in West 7.1 mph 11 mph 72% 0.00 in 383 W/m2
15:24 59.2 °F 49.5 °F 29.59 in West 7.9 mph 13 mph 70.2% 0.00 in 327 W/m2
15:29 59 °F 48.6 °F 29.59 in WNW 6.5 mph 13 mph 68.4% 0.00 in 308 W/m2
15:34 58.8 °F 48.7 °F 29.59 in NW 9.9 mph 13 mph 69% 0.00 in 350 W/m2
15:38 58.6 °F 48.8 °F 29.59 in WNW 9.8 mph 15 mph 70% 0.00 in 366 W/m2
15:44 58.8 °F 49.1 °F 29.60 in WNW 6.8 mph 14 mph 70% 0.00 in 640 W/m2
15:49 59.3 °F 49.5 °F 29.59 in WNW 5.2 mph 13 mph 70% 0.00 in 536 W/m2
15:54 59.5 °F 49.5 °F 29.59 in WNW 7.7 mph 16 mph 69.5% 0.00 in 371 W/m2
15:59 58.7 °F 48.6 °F 29.60 in West 10.7 mph 16 mph 69% 0.00 in 323 W/m2
16:04 58.6 °F 48.9 °F 29.60 in West 7.2 mph 15 mph 70.2% 0.00 in 285 W/m2
16:09 58.5 °F 49.3 °F 29.59 in West 5.2 mph 14 mph 71.4% 0.00 in 243 W/m2
16:14 58.3 °F 49.4 °F 29.60 in West 5.8 mph 12 mph 72.2% 0.00 in 220 W/m2
16:19 57.9 °F 49.3 °F 29.60 in WNW 7.5 mph 14 mph 72.8% 0.00 in 214 W/m2
16:24 57.7 °F 49.1 °F 29.60 in WNW 7.8 mph 14 mph 73% 0.00 in 216 W/m2
16:29 57.6 °F 49.3 °F 29.60 in West 7.5 mph 16 mph 74% 0.00 in 188 W/m2
16:34 57.2 °F 48.9 °F 29.60 in West 9.9 mph 16 mph 74% 0.00 in 186 W/m2
16:39 56.8 °F 48.6 °F 29.60 in West 8 mph 15 mph 74% 0.00 in 202 W/m2
16:44 56.8 °F 48.6 °F 29.60 in WNW 7.4 mph 11 mph 74% 0.00 in 225 W/m2
16:49 56.7 °F 48.4 °F 29.60 in West 9.5 mph 16 mph 74% 0.00 in 236 W/m2
16:54 56.7 °F 48.4 °F 29.59 in WNW 4.5 mph 11 mph 74% 0.00 in 234 W/m2
16:59 56.8 °F 48.2 °F 29.60 in West 6.1 mph 11 mph 73% 0.00 in 223 W/m2
17:04 56.8 °F 48.2 °F 29.59 in West 6.3 mph 14 mph 73% 0.00 in 229 W/m2
17:09 56.7 °F 48 °F 29.59 in WNW 7 mph 12 mph 73% 0.00 in 243 W/m2
17:14 56.7 °F 48.2 °F 29.59 in WNW 5.3 mph 12 mph 73.6% 0.00 in 243 W/m2
17:18 56.7 °F 48.4 °F 29.59 in West 7 mph 15 mph 74% 0.00 in 223 W/m2
17:24 56.7 °F 48.4 °F 29.59 in West 5.1 mph 12 mph 74% 0.00 in 236 W/m2
17:29 56.6 °F 48.4 °F 29.59 in WNW 6.2 mph 12 mph 74% 0.00 in 241 W/m2
17:34 56.6 °F 48.4 °F 29.59 in West 6.8 mph 12 mph 74% 0.00 in 257 W/m2
17:39 56.5 °F 48.4 °F 29.59 in West 5.8 mph 12 mph 74% 0.00 in 243 W/m2
17:44 56.6 °F 48.5 °F 29.59 in West 4.5 mph 12 mph 74.4% 0.00 in 218 W/m2
17:49 56.8 °F 48.8 °F 29.59 in WSW 4.5 mph 8 mph 74.5% 0.00 in 197 W/m2
17:54 56.8 °F 48.6 °F 29.59 in WNW 7.2 mph 12 mph 74.2% 0.00 in 190 W/m2
17:59 56.7 °F 48.5 °F 29.59 in WNW 5.6 mph 10 mph 74% 0.00 in 192 W/m2
18:04 56.8 °F 48.6 °F 29.59 in West 5.7 mph 9 mph 74% 0.00 in 190 W/m2
18:09 56.7 °F 48.5 °F 29.59 in WNW 7.2 mph 11 mph 74% 0.00 in 185 W/m2
18:14 56.5 °F 48.1 °F 29.59 in WNW 6.4 mph 14 mph 73.2% 0.00 in 206 W/m2
18:19 56.6 °F 48 °F 29.59 in West 6.4 mph 12 mph 73% 0.00 in 258 W/m2
18:24 56.3 °F 47.8 °F 29.59 in West 5 mph 12 mph 73% 0.00 in 243 W/m2
18:29 56.1 °F 48 °F 29.59 in West 7.5 mph 14 mph 74% 0.00 in 199 W/m2
18:34 56.1 °F 48 °F 29.59 in WNW 5.8 mph 14 mph 74% 0.00 in 171 W/m2
18:39 56.3 °F 48.4 °F 29.59 in West 7.8 mph 11 mph 74.6% 0.00 in 169 W/m2
18:44 56.1 °F 48.4 °F 29.59 in WNW 5.9 mph 11 mph 75% 0.00 in 163 W/m2
18:49 56.3 °F 48.5 °F 29.59 in West 4.8 mph 9 mph 75% 0.00 in 121 W/m2
18:54 56.3 °F 48.7 °F 29.59 in West 6.2 mph 12 mph 75.5% 0.00 in 102 W/m2
18:59 56.4 °F 48.9 °F 29.59 in WSW 5 mph 12 mph 76% 0.00 in 139 W/m2
19:09 56.4 °F 48.9 °F 29.59 in WNW 6.6 mph 11 mph 76% 0.00 in 127 W/m2
19:14 56.2 °F 48.9 °F 29.59 in WNW 5.6 mph 10 mph 76.6% 0.00 in 165 W/m2
19:19 56.3 °F 49 °F 29.59 in West 4.8 mph 10 mph 76.4% 0.00 in 118 W/m2
19:24 56 °F 48.7 °F 29.59 in West 6 mph 10 mph 76% 0.00 in 118 W/m2
19:29 55.8 °F 48.6 °F 29.59 in West 6 mph 11 mph 76.6% 0.00 in 120 W/m2
19:34 55.7 °F 48.6 °F 29.59 in West 5.7 mph 10 mph 77% 0.00 in 102 W/m2
19:39 55.6 °F 48.6 °F 29.59 in WNW 6 mph 12 mph 77% 0.00 in 97 W/m2
19:44 55.6 °F 48.6 °F 29.59 in West 5.2 mph 12 mph 77% 0.00 in 91 W/m2
19:49 55.3 °F 48.6 °F 29.59 in West 6.9 mph 12 mph 77.8% 0.00 in 104 W/m2
19:54 55 °F 48.4 °F 29.59 in West 6.6 mph 13 mph 78% 0.00 in 104 W/m2
19:59 55 °F 48.4 °F 29.59 in West 6.7 mph 13 mph 78% 0.00 in 77 W/m2
20:04 55 °F 48.4 °F 29.59 in West 6.5 mph 13 mph 78.2% 0.00 in 49 W/m2
20:09 54.9 °F 48.6 °F 29.59 in WNW 8 mph 12 mph 79% 0.00 in 18 W/m2
20:14 54.5 °F 48.4 °F 29.59 in West 9.2 mph 16 mph 79.6% 0.00 in 12 W/m2
20:19 54.3 °F 48.2 °F 29.59 in WNW 6.8 mph 16 mph 80% 0.00 in 11 W/m2
20:24 53.9 °F 48 °F 29.60 in NNW 5.6 mph 13 mph 80.2% 0.00 in 5 W/m2
20:29 53.1 °F 46.3 °F 29.60 in NNW 6 mph 14 mph 77.6% 0.00 in 0 W/m2
20:34 52.3 °F 45.4 °F 29.60 in NW 5.4 mph 11 mph 77.2% 0.00 in 0 W/m2
20:44 51.1 °F 45.6 °F 29.61 in NW 5.9 mph 12 mph 81.2% 0.01 in 0 W/m2
20:49 50.7 °F 45.6 °F 29.61 in NNW 6.6 mph 11 mph 82.4% 0.02 in 0 W/m2
20:54 50.3 °F 45.4 °F 29.60 in NW 3.6 mph 8 mph 83.4% 0.02 in 0 W/m2
20:59 49.8 °F 45.4 °F 29.61 in WNW 3 mph 6 mph 84.6% 0.05 in 0 W/m2
21:04 49.7 °F 45.7 °F 29.61 in NW 1.7 mph 5 mph 85.8% 0.09 in 0 W/m2
21:09 49.5 °F 45.6 °F 29.61 in NW 1 mph 4 mph 86% 0.12 in 0 W/m2
21:14 49.6 °F 45.9 °F 29.61 in NW 0.8 mph 3 mph 87% 0.13 in 0 W/m2
21:19 49.6 °F 46 °F 29.61 in NW 1.6 mph 4 mph 87.2% 0.19 in 0 W/m2
21:24 49.5 °F 46 °F 29.61 in NW 1 mph 3 mph 88% 0.24 in 0 W/m2
21:29 49.5 °F 46.2 °F 29.62 in NW 2 mph 5 mph 88.5% 0.27 in 0 W/m2
21:34 49.3 °F 46.2 °F 29.62 in WNW 3.7 mph 7 mph 89% 0.28 in 0 W/m2
21:39 49.1 °F 46.2 °F 29.62 in NW 5.2 mph 10 mph 89.6% 0.29 in 0 W/m2
21:44 49.3 °F 46.4 °F 29.62 in West 3.3 mph 6 mph 90% 0.30 in 0 W/m2
21:49 49.3 °F 46.6 °F 29.62 in WNW 4.5 mph 11 mph 90.4% 0.31 in 0 W/m2
21:54 49.1 °F 46.4 °F 29.62 in WNW 5.2 mph 11 mph 90.4% 0.31 in 0 W/m2
21:59 48.9 °F 46.4 °F 29.62 in WNW 2.6 mph 7 mph 91% 0.31 in 0 W/m2
22:04 48.9 °F 46.4 °F 29.62 in WNW 0.5 mph 5 mph 91% 0.30 in 0 W/m2
22:09 48.7 °F 46.2 °F 29.62 in WNW 2 mph 3 mph 91% 0.24 in 0 W/m2
22:14 48.7 °F 46.2 °F 29.62 in WNW 1.4 mph 4 mph 91% 0.23 in 0 W/m2
22:19 48.7 °F 46.4 °F 29.62 in WNW 1.5 mph 3 mph 91.5% 0.21 in 0 W/m2
22:24 48.7 °F 46.6 °F 29.62 in WNW 1.2 mph 3 mph 92% 0.17 in 0 W/m2
22:29 48.7 °F 46.6 °F 29.62 in WNW 2 mph 4 mph 92% 0.11 in 0 W/m2
22:34 48.7 °F 46.6 °F 29.62 in WNW 2.4 mph 4 mph 92% 0.08 in 0 W/m2
22:39 48.7 °F 46.6 °F 29.62 in WNW 2 mph 3 mph 92% 0.06 in 0 W/m2
22:44 48.7 °F 46.6 °F 29.62 in WNW 0.4 mph 3 mph 92% 0.06 in 0 W/m2
22:49 48.7 °F 46.6 °F 29.62 in Calm   1 mph 92% 0.05 in 0 W/m2
22:54 48.9 °F 46.8 °F 29.62 in Calm   1 mph 92% 0.03 in 0 W/m2
22:59 48.9 °F 46.9 °F 29.62 in Calm     92.8% 0.02 in 0 W/m2
23:04 49 °F 46.9 °F 29.62 in Calm   1 mph 92.6% 0.01 in 0 W/m2
23:09 48.9 °F 46.9 °F 29.62 in Calm     93% 0.01 in 0 W/m2
23:19 49.3 °F 47.3 °F 29.62 in Calm   1 mph 93% 0.00 in 0 W/m2
23:24 49.3 °F 47.3 °F 29.62 in WNW 0.2 mph 1 mph 93% 0.00 in 0 W/m2
23:29 49.5 °F 47.5 °F 29.62 in WNW 0.5 mph 2 mph 93% 0.00 in 0 W/m2
23:34 49.5 °F 47.5 °F 29.62 in Calm   1 mph 93% 0.00 in 0 W/m2
23:39 49.3 °F 47.3 °F 29.62 in Calm     93% 0.00 in 0 W/m2
23:44 49.3 °F 47.3 °F 29.62 in WNW 1.3 mph 2 mph 93% 0.00 in 0 W/m2
23:48 49.3 °F 47.3 °F 29.62 in WNW 0.5 mph 2 mph 93% 0.00 in 0 W/m2
23:54 49.1 °F 47.1 °F 29.62 in Calm   1 mph 93% 0.00 in 0 W/m2
23:59 49.1 °F 47.1 °F 29.62 in Calm   1 mph 93% 0.00 in 0 W/m2
Bath Spa Weather
Compliments of Weather Underground - 2 mb